Iver Agile — IBHW — position and weather

sailwx.info

Track history (hours):
 
Tides and Currents Weather Stations Pressure Air Temp Water Temp Dewpoint Dewpoint Depression Visibility Wind Speed Wind Dir Waves Ship Positions

Iver Agile

Last reported at 2017-Nov-19 14:44 UTC. Time now 2018-Jan-20 05:15 UTC.
Position N 16°14' W 061°33'.
Warning: this ship's position is months out of date.

Length 110 m; draft 6.1 m.

Type: Ship. MMSI: 247103700.

Date/timePositionNaut miles runAvg speedWind from/ knotsBaromVisibWave heightAir tempDewpointWater temp
2017-Nov-19 14:44N 16°14' W 061°33'0 0.0
2017-Nov-19 14:30N 16°14' W 061°33'0 0.4
2017-Nov-19 14:00N 16°14' W 061°33'2 3.5
2017-Nov-19 13:30N 16°13' W 061°32'4 7.3
2017-Nov-19 13:00N 16°09' W 061°30'3 5.5
2017-Nov-19 12:30N 16°07' W 061°30'3 6.7
2017-Nov-19 11:59N 16°03' W 061°29'3 6.7
2017-Nov-19 11:30N 15°60' W 061°29'3 6.5
2017-Nov-19 10:59N 15°58' W 061°32'3 6.2
2017-Nov-19 10:30N 15°57' W 061°35'8 5.9
2017-Nov-19 09:07N 15°53' W 061°42'1 5.9
2017-Nov-19 09:00N 15°53' W 061°43'3 6.3
2017-Nov-19 08:30N 15°55' W 061°46'6 6.9
2017-Nov-19 07:42N 15°58' W 061°51'2 7.2
2017-Nov-19 07:28N 15°59' W 061°52'3 7.2
2017-Nov-19 07:00N 16°00' W 061°55'4 7.0
2017-Nov-19 06:30N 16°02' W 061°58'9 7.3
2017-Nov-19 05:18N 16°04' W 062°07'36 7.2
2017-Nov-19 00:14N 16°11' W 062°45'3 7.5
2017-Nov-18 23:53N 16°12' W 062°47'  
Track history (hours):
 
Tides and Currents Weather Stations Pressure Air Temp Water Temp Dewpoint Dewpoint Depression Visibility Wind Speed Wind Dir Waves Ship Positions

Iver Agile

Last reported at 2017-Nov-19 14:44 UTC. Time now 2018-Jan-20 05:15 UTC.
Position N 16°14' W 061°33'.
Warning: this ship's position is months out of date.

Length 110 m; draft 6.1 m.

Type: Ship. MMSI: 247103700.

Date/timePositionNaut miles runAvg speedWind from/ knotsBaromVisibWave heightAir tempDewpointWater temp
2017-Nov-19 14:44N 16°14' W 061°33'0 0.0
2017-Nov-19 14:30N 16°14' W 061°33'0 0.4
2017-Nov-19 14:00N 16°14' W 061°33'2 3.5
2017-Nov-19 13:30N 16°13' W 061°32'4 7.3
2017-Nov-19 13:00N 16°09' W 061°30'3 5.5
2017-Nov-19 12:30N 16°07' W 061°30'3 6.7
2017-Nov-19 11:59N 16°03' W 061°29'3 6.7
2017-Nov-19 11:30N 15°60' W 061°29'3 6.5
2017-Nov-19 10:59N 15°58' W 061°32'3 6.2
2017-Nov-19 10:30N 15°57' W 061°35'8 5.9
2017-Nov-19 09:07N 15°53' W 061°42'1 5.9
2017-Nov-19 09:00N 15°53' W 061°43'3 6.3
2017-Nov-19 08:30N 15°55' W 061°46'6 6.9
2017-Nov-19 07:42N 15°58' W 061°51'2 7.2
2017-Nov-19 07:28N 15°59' W 061°52'3 7.2
2017-Nov-19 07:00N 16°00' W 061°55'4 7.0
2017-Nov-19 06:30N 16°02' W 061°58'9 7.3
2017-Nov-19 05:18N 16°04' W 062°07'36 7.2
2017-Nov-19 00:14N 16°11' W 062°45'3 7.5
2017-Nov-18 23:53N 16°12' W 062°47'  

Dump ship's entire track history